createdAt,value
2022-12-01T00:01:02.124Z,7.00
2022-12-01T00:03:32.121Z,6.55
2022-12-01T00:06:03.538Z,7.57
2022-12-01T00:08:30.061Z,6.97
2022-12-01T00:10:56.643Z,7.75
2022-12-01T00:13:23.123Z,8.02
2022-12-01T00:15:49.575Z,8.57
2022-12-01T00:18:16.037Z,8.00
2022-12-01T00:20:42.537Z,7.50
2022-12-01T00:23:08.998Z,7.38
2022-12-01T00:25:35.462Z,8.27
2022-12-01T00:28:01.914Z,7.30
2022-12-01T00:30:28.386Z,7.97
2022-12-01T00:32:54.890Z,7.47
2022-12-01T00:35:21.342Z,9.98
2022-12-01T00:37:47.808Z,6.63
2022-12-01T00:40:14.352Z,9.57
2022-12-01T00:42:40.894Z,7.45
2022-12-01T00:45:07.396Z,8.57
2022-12-01T00:47:33.833Z,8.40
2022-12-01T00:50:00.282Z,8.00
2022-12-01T00:52:26.729Z,7.43
2022-12-01T00:54:53.178Z,7.53
2022-12-01T00:57:19.645Z,7.55
2022-12-01T00:59:46.368Z,8.05
2022-12-01T01:02:13.037Z,8.32
2022-12-01T01:04:39.552Z,8.68
2022-12-01T01:07:06.048Z,9.00
2022-12-01T01:09:33.208Z,8.02
2022-12-01T01:11:59.772Z,8.52
2022-12-01T01:14:26.231Z,8.35
2022-12-01T01:16:52.724Z,7.90
2022-12-01T01:19:19.229Z,8.13
2022-12-01T01:21:45.686Z,8.43
2022-12-01T01:24:12.398Z,9.35
2022-12-01T01:26:38.870Z,8.90
2022-12-01T01:29:07.478Z,8.05
2022-12-01T01:31:34.177Z,9.85
2022-12-01T01:34:00.742Z,9.13
2022-12-01T01:36:27.368Z,8.77
2022-12-01T01:38:55.333Z,9.35
2022-12-01T01:41:22.503Z,9.57
2022-12-01T01:43:53.283Z,9.05
2022-12-01T01:46:20.752Z,9.70
2022-12-01T01:49:00.724Z,8.95
2022-12-01T01:51:33.757Z,10.35
2022-12-01T01:54:03.693Z,8.98
2022-12-01T01:56:30.327Z,9.32
2022-12-01T01:58:56.783Z,9.38
2022-12-01T02:01:23.267Z,9.60
2022-12-01T02:03:49.973Z,9.65
2022-12-01T02:06:16.469Z,9.27
2022-12-01T02:08:42.978Z,9.75
2022-12-01T02:11:22.525Z,9.05
2022-12-01T02:13:58.773Z,9.73
2022-12-01T02:16:50.057Z,9.82
2022-12-01T02:19:28.700Z,10.40
2022-12-01T02:22:21.191Z,9.77
2022-12-01T02:24:53.357Z,10.80
2022-12-01T02:27:48.852Z,10.10
2022-12-01T02:30:17.312Z,10.38
2022-12-01T02:33:04.325Z,10.43
2022-12-01T02:35:33.650Z,9.43
2022-12-01T02:38:16.301Z,9.90
2022-12-01T02:41:01.426Z,10.52
2022-12-01T02:43:49.495Z,10.20
2022-12-01T02:46:24.313Z,12.85
2022-12-01T02:48:51.827Z,10.80
2022-12-01T02:51:20.975Z,10.18
2022-12-01T02:53:47.450Z,9.88
2022-12-01T02:56:15.999Z,10.50
2022-12-01T02:58:43.989Z,10.57
2022-12-01T03:01:15.320Z,11.07
2022-12-01T03:04:03.729Z,10.05
2022-12-01T03:06:49.840Z,11.35
2022-12-01T03:09:39.518Z,11.00
2022-12-01T03:12:14.769Z,11.13
2022-12-01T03:15:03.352Z,10.30
2022-12-01T03:17:34.314Z,10.32
2022-12-01T03:20:24.131Z,10.70
2022-12-01T03:22:53.791Z,10.55
2022-12-01T03:25:20.261Z,11.18
2022-12-01T03:28:13.399Z,9.82
2022-12-01T03:30:33.828Z,9.73
2022-12-01T03:33:04.637Z,10.60
2022-12-01T03:35:33.664Z,29.55
2022-12-01T03:38:06.520Z,20.33
2022-12-01T03:40:32.991Z,16.10
2022-12-01T03:43:10.814Z,16.75
2022-12-01T03:45:44.919Z,16.55
2022-12-01T03:50:54.555Z,17.13
2022-12-01T03:53:26.108Z,16.23
2022-12-01T03:55:55.968Z,15.73
2022-12-01T03:58:26.225Z,15.80
2022-12-01T04:00:57.558Z,14.52
2022-12-01T04:03:24.974Z,14.52
2022-12-01T04:05:51.455Z,13.45
2022-12-01T04:08:17.931Z,13.88
2022-12-01T04:10:44.415Z,13.27
2022-12-01T04:13:16.782Z,16.13
2022-12-01T04:15:43.572Z,14.52
2022-12-01T04:18:10.040Z,15.63
2022-12-01T04:20:36.489Z,16.15
2022-12-01T04:23:02.957Z,12.95
2022-12-01T04:25:29.740Z,12.15
2022-12-01T04:27:56.181Z,13.10
2022-12-01T04:30:22.707Z,13.60
2022-12-01T04:32:49.147Z,13.52
2022-12-01T04:35:15.633Z,13.75
2022-12-01T04:37:42.081Z,12.90
2022-12-01T04:40:08.858Z,13.15
2022-12-01T04:42:35.348Z,13.02
2022-12-01T04:45:01.786Z,11.85
2022-12-01T04:47:28.240Z,13.75
2022-12-01T04:49:54.728Z,12.30
2022-12-01T04:52:21.807Z,13.10
2022-12-01T04:54:48.255Z,12.63
2022-12-01T04:57:15.057Z,12.50
2022-12-01T04:59:41.513Z,12.68
2022-12-01T05:02:08.078Z,12.30
2022-12-01T05:04:38.440Z,11.60
2022-12-01T05:07:05.243Z,13.38
2022-12-01T05:09:31.763Z,12.48
2022-12-01T05:11:58.468Z,11.35
2022-12-01T05:14:24.935Z,10.77
2022-12-01T05:16:51.407Z,12.43
2022-12-01T05:19:36.437Z,11.63
2022-12-01T05:22:03.137Z,11.45
2022-12-01T05:24:29.733Z,11.98
2022-12-01T05:26:56.179Z,11.27
2022-12-01T05:29:22.641Z,13.07
2022-12-01T05:31:49.391Z,12.55
2022-12-01T05:34:16.023Z,13.13
2022-12-01T05:36:42.490Z,11.57
2022-12-01T05:39:08.959Z,11.82
2022-12-01T05:41:35.412Z,12.85
2022-12-01T05:44:02.298Z,12.00
2022-12-01T05:46:28.998Z,12.77
2022-12-01T05:48:55.516Z,13.23
2022-12-01T05:51:21.967Z,12.50
2022-12-01T05:53:48.756Z,13.65
2022-12-01T05:56:15.198Z,13.50
2022-12-01T05:58:41.670Z,13.93
2022-12-01T06:01:08.194Z,14.15
2022-12-01T06:03:34.638Z,13.32
2022-12-01T06:06:01.115Z,17.60
2022-12-01T06:08:27.701Z,14.77
2022-12-01T06:10:54.156Z,13.93
2022-12-01T06:13:20.598Z,13.68
2022-12-01T06:15:56.292Z,12.85
2022-12-01T06:18:23.082Z,13.07
2022-12-01T06:20:49.695Z,13.45
2022-12-01T06:23:16.147Z,13.10
2022-12-01T06:25:42.820Z,12.68
2022-12-01T06:28:09.292Z,13.75
2022-12-01T06:30:35.733Z,16.88
2022-12-01T06:33:02.197Z,16.48
2022-12-01T06:35:28.645Z,13.93
2022-12-01T06:37:55.097Z,12.55
2022-12-01T06:40:21.556Z,12.90
2022-12-01T06:42:47.997Z,13.50
2022-12-01T06:45:14.532Z,14.95
2022-12-01T06:47:41.063Z,15.88
2022-12-01T06:50:08.282Z,18.00
2022-12-01T06:52:35.160Z,14.38
2022-12-01T06:55:03.794Z,13.82
2022-12-01T06:57:30.608Z,17.77
2022-12-01T06:59:57.324Z,15.18
2022-12-01T07:02:24.240Z,17.52
2022-12-01T07:04:50.721Z,16.80
2022-12-01T07:07:17.445Z,15.57
2022-12-01T07:09:44.337Z,14.75
2022-12-01T07:12:10.830Z,15.65
2022-12-01T07:14:37.812Z,17.00
2022-12-01T07:17:04.546Z,16.65
2022-12-01T07:19:31.200Z,16.45
2022-12-01T07:21:57.793Z,14.85
2022-12-01T07:24:24.500Z,15.18
2022-12-01T07:26:50.945Z,16.90
2022-12-01T07:29:17.465Z,15.63
2022-12-01T07:31:44.085Z,16.60
2022-12-01T07:34:13.406Z,13.90
2022-12-01T07:36:39.854Z,16.30
2022-12-01T07:39:07.513Z,15.27
2022-12-01T07:41:34.332Z,17.77
2022-12-01T07:44:01.620Z,14.60
2022-12-01T07:46:28.286Z,17.90
2022-12-01T07:48:55.205Z,14.98
2022-12-01T07:51:22.388Z,15.10
2022-12-01T07:53:49.539Z,14.90
2022-12-01T07:56:16.323Z,15.38
2022-12-01T07:58:42.781Z,18.17
2022-12-01T08:01:13.827Z,17.20
2022-12-01T08:03:40.478Z,14.57
2022-12-01T08:06:07.258Z,16.27
2022-12-01T08:08:34.470Z,14.35
2022-12-01T08:11:02.162Z,14.27
2022-12-01T08:13:28.776Z,14.50
2022-12-01T08:15:55.273Z,15.98
2022-12-01T08:18:22.812Z,14.73
2022-12-01T08:20:50.114Z,14.80
2022-12-01T08:23:16.613Z,14.88
2022-12-01T08:25:43.068Z,16.77
2022-12-01T08:28:09.521Z,16.15
2022-12-01T08:30:36.143Z,15.73
2022-12-01T08:33:02.654Z,18.48
2022-12-01T08:35:29.117Z,19.73
2022-12-01T08:37:55.703Z,21.10
2022-12-01T08:40:22.232Z,18.50
2022-12-01T08:42:48.695Z,19.60
2022-12-01T08:45:15.193Z,19.10
2022-12-01T08:47:41.662Z,22.00
2022-12-01T08:50:08.356Z,36.67
2022-12-01T08:52:34.952Z,24.05
2022-12-01T08:55:01.507Z,23.75
2022-12-01T08:57:31.407Z,24.63
2022-12-01T08:59:57.902Z,22.83
2022-12-01T09:02:24.537Z,21.65
2022-12-01T09:04:51.321Z,20.77
2022-12-01T09:07:21.538Z,23.10
2022-12-01T09:09:52.448Z,20.30
2022-12-01T09:12:18.893Z,18.65
2022-12-01T09:14:49.568Z,17.80
2022-12-01T09:17:16.576Z,18.60
2022-12-01T09:19:43.874Z,19.58
2022-12-01T09:22:10.648Z,19.42
2022-12-01T09:24:37.185Z,32.28
2022-12-01T09:27:03.684Z,30.05
2022-12-01T09:29:30.439Z,31.58
2022-12-01T09:31:57.208Z,32.22
2022-12-01T09:34:23.801Z,24.38
2022-12-01T09:36:50.285Z,21.55
2022-12-01T09:39:19.041Z,21.38
2022-12-01T09:42:09.082Z,20.02
2022-12-01T09:44:40.092Z,19.70
2022-12-01T09:47:22.228Z,19.58
2022-12-01T09:50:02.977Z,22.52
2022-12-01T09:52:39.672Z,17.85
2022-12-01T09:55:11.607Z,22.35
2022-12-01T09:57:39.787Z,19.15
2022-12-01T10:00:20.990Z,18.67
2022-12-01T10:03:06.529Z,15.02
2022-12-01T10:09:25.760Z,20.75
2022-12-01T10:11:54.953Z,16.27
2022-12-01T10:14:22.055Z,18.58
2022-12-01T10:17:19.284Z,15.70
2022-12-01T10:19:57.795Z,20.98
2022-12-01T10:22:31.892Z,20.17
2022-12-01T10:27:42.768Z,18.10
2022-12-01T10:30:16.182Z,17.83
2022-12-01T10:33:07.179Z,18.92
2022-12-01T10:35:37.005Z,17.00
2022-12-01T10:38:06.717Z,19.02
2022-12-01T10:40:36.659Z,21.83
2022-12-01T10:43:03.207Z,16.42
2022-12-01T10:45:33.770Z,16.85
2022-12-01T10:48:15.021Z,18.50
2022-12-01T10:51:16.805Z,18.20
2022-12-01T10:53:43.317Z,16.55
2022-12-01T10:56:16.049Z,17.00
2022-12-01T10:58:48.092Z,16.38
2022-12-01T11:01:22.399Z,15.90
2022-12-01T11:03:50.994Z,16.63
2022-12-01T11:06:21.705Z,14.73
2022-12-01T11:09:25.957Z,15.95
2022-12-01T11:12:15.116Z,16.48
2022-12-01T11:14:44.865Z,15.30
2022-12-01T11:17:31.293Z,15.20
2022-12-01T11:19:57.902Z,14.10
2022-12-01T11:22:30.685Z,15.95
2022-12-01T11:25:00.835Z,15.90
2022-12-01T11:27:30.333Z,14.55
2022-12-01T11:30:04.751Z,15.63
2022-12-01T11:32:36.114Z,14.55
2022-12-01T11:35:14.524Z,15.25
2022-12-01T11:38:13.302Z,14.73
2022-12-01T11:40:54.980Z,14.20
2022-12-01T11:43:29.558Z,19.25
2022-12-01T11:45:57.130Z,15.32
2022-12-01T11:48:28.602Z,14.05
2022-12-01T11:51:08.280Z,17.38
2022-12-01T11:53:36.796Z,16.45
2022-12-01T11:56:20.762Z,15.00
2022-12-01T11:58:47.828Z,14.10
2022-12-01T12:01:23.337Z,14.82
2022-12-01T12:04:04.386Z,16.63
2022-12-01T12:06:40.476Z,14.73
2022-12-01T12:09:25.957Z,15.40
2022-12-01T12:12:16.569Z,15.00
2022-12-01T12:15:17.273Z,15.93
2022-12-01T12:18:05.621Z,14.48
2022-12-01T12:20:34.368Z,14.55
2022-12-01T12:23:34.990Z,14.75
2022-12-01T12:26:21.159Z,15.20
2022-12-01T12:29:15.970Z,13.90
2022-12-01T12:32:03.858Z,13.80
2022-12-01T12:34:57.003Z,16.48
2022-12-01T12:37:33.298Z,16.17
2022-12-01T12:40:21.878Z,16.05
2022-12-01T12:42:52.350Z,16.48
2022-12-01T12:45:35.357Z,14.77
2022-12-01T12:48:13.063Z,15.40
2022-12-01T12:50:56.376Z,14.90
2022-12-01T12:53:27.207Z,16.42
2022-12-01T12:55:57.622Z,16.70
2022-12-01T12:58:27.566Z,15.02
2022-12-01T13:01:06.028Z,14.85
2022-12-01T13:03:35.675Z,15.10
2022-12-01T13:06:06.730Z,14.15
2022-12-01T13:08:58.161Z,14.27
2022-12-01T13:11:38.450Z,17.20
2022-12-01T13:14:12.092Z,14.38
2022-12-01T13:16:44.264Z,14.93
2022-12-01T13:19:28.694Z,15.57
2022-12-01T13:24:23.978Z,20.38
2022-12-01T13:27:13.280Z,16.55
2022-12-01T13:29:44.425Z,18.02
2022-12-01T13:32:28.993Z,17.95
2022-12-01T13:34:55.565Z,16.42
2022-12-01T13:37:26.754Z,15.32
2022-12-01T13:39:54.215Z,20.58
2022-12-01T13:42:27.053Z,16.70
2022-12-01T13:45:01.053Z,16.15
2022-12-01T13:47:39.941Z,16.58
2022-12-01T13:50:47.874Z,14.77
2022-12-01T13:53:20.275Z,16.77
2022-12-01T13:56:06.020Z,17.42
2022-12-01T13:58:32.639Z,17.08
2022-12-01T14:01:21.095Z,16.50
2022-12-01T14:04:01.041Z,15.57
2022-12-01T14:06:49.034Z,15.88
2022-12-01T14:09:26.427Z,15.23
2022-12-01T14:11:56.364Z,13.93
2022-12-01T14:14:26.270Z,14.25
2022-12-01T14:16:58.678Z,17.65
2022-12-01T14:19:40.797Z,16.38
2022-12-01T14:22:07.740Z,17.17
2022-12-01T14:24:38.275Z,14.02
2022-12-01T14:27:05.008Z,15.32
2022-12-01T14:29:38.650Z,15.48
2022-12-01T14:32:08.297Z,13.05
2022-12-01T14:34:35.443Z,13.80
2022-12-01T14:37:14.047Z,15.18
2022-12-01T14:39:42.326Z,15.00
2022-12-01T14:42:11.709Z,17.35
2022-12-01T14:44:43.218Z,15.88
2022-12-01T14:47:16.428Z,18.08
2022-12-01T14:50:18.583Z,17.13
2022-12-01T14:52:54.357Z,14.00
2022-12-01T14:55:39.118Z,16.13
2022-12-01T14:58:25.575Z,16.33
2022-12-01T15:01:05.992Z,13.98
2022-12-01T15:03:41.751Z,17.52
2022-12-01T15:06:08.428Z,13.60
2022-12-01T15:11:25.376Z,17.40
2022-12-01T15:13:53.547Z,13.90
2022-12-01T15:16:21.888Z,16.60
2022-12-01T15:18:48.699Z,16.70
2022-12-01T15:21:29.450Z,16.60
2022-12-01T15:24:00.756Z,13.60
2022-12-01T15:26:45.251Z,14.55
2022-12-01T15:29:19.153Z,17.92
2022-12-01T15:31:48.378Z,15.90
2022-12-01T15:34:23.733Z,17.58
2022-12-01T15:36:51.190Z,16.13
2022-12-01T15:39:19.759Z,14.48
2022-12-01T15:41:48.538Z,15.85
2022-12-01T15:44:27.057Z,14.82
2022-12-01T15:46:53.521Z,13.45
2022-12-01T15:49:27.553Z,18.67
2022-12-01T15:54:23.169Z,16.05
2022-12-01T16:00:36.546Z,14.82
2022-12-01T16:03:03.251Z,14.68
2022-12-01T16:05:33.232Z,12.07
2022-12-01T16:08:16.953Z,12.65
2022-12-01T16:10:43.662Z,15.20
2022-12-01T16:13:45.104Z,15.10
2022-12-01T16:16:26.471Z,15.10
2022-12-01T16:18:57.686Z,19.95
2022-12-01T16:21:24.288Z,13.48
2022-12-01T16:24:04.838Z,12.70
2022-12-01T16:26:32.564Z,12.07
2022-12-01T16:28:59.108Z,15.10
2022-12-01T16:31:26.174Z,14.35
2022-12-01T16:34:13.931Z,13.60
2022-12-01T16:36:45.118Z,12.40
2022-12-01T16:39:15.259Z,12.25
2022-12-01T16:41:44.599Z,11.93
2022-12-01T16:44:28.967Z,12.57
2022-12-01T16:46:55.904Z,14.35
2022-12-01T16:49:22.338Z,15.18
2022-12-01T16:51:57.039Z,13.07
2022-12-01T16:54:25.245Z,14.00
2022-12-01T16:56:51.716Z,11.82
2022-12-01T16:59:18.425Z,18.55
2022-12-01T17:01:44.887Z,14.90
2022-12-01T17:04:11.435Z,13.15
2022-12-01T17:06:38.574Z,17.25
2022-12-01T17:09:05.004Z,15.48
2022-12-01T17:11:32.102Z,15.13
2022-12-01T17:13:58.688Z,13.73
2022-12-01T17:16:25.416Z,11.85
2022-12-01T17:18:51.884Z,13.20
2022-12-01T17:21:18.331Z,12.45
2022-12-01T17:23:44.781Z,13.18
2022-12-01T17:26:13.411Z,12.60
2022-12-01T17:28:39.860Z,14.80
2022-12-01T17:31:06.750Z,15.30
2022-12-01T17:33:33.512Z,11.77
2022-12-01T17:36:12.744Z,12.02
2022-12-01T17:38:43.154Z,11.90
2022-12-01T17:41:11.482Z,12.38
2022-12-01T17:43:37.945Z,15.35
2022-12-01T17:46:05.626Z,12.80
2022-12-01T17:48:40.427Z,12.52
2022-12-01T17:51:07.064Z,22.38
2022-12-01T17:53:33.517Z,22.48
2022-12-01T17:55:59.919Z,22.20
2022-12-01T17:58:26.556Z,18.88
2022-12-01T18:00:53.352Z,27.30
2022-12-01T18:03:19.994Z,20.00
2022-12-01T18:06:01.075Z,22.63
2022-12-01T18:08:29.327Z,20.98
2022-12-01T18:10:55.841Z,20.50
2022-12-01T18:13:22.328Z,20.13
2022-12-01T18:15:49.134Z,18.23
2022-12-01T18:18:15.629Z,20.50
2022-12-01T18:20:42.735Z,21.42
2022-12-01T18:23:09.879Z,21.55
2022-12-01T18:25:36.729Z,24.63
2022-12-01T18:28:03.468Z,22.48
2022-12-01T18:30:30.125Z,23.73
2022-12-01T18:32:59.283Z,21.42
2022-12-01T18:35:31.588Z,20.20
2022-12-01T18:37:58.491Z,16.98
2022-12-01T18:40:25.078Z,20.50
2022-12-01T18:42:51.566Z,20.77
2022-12-01T18:45:21.323Z,19.98
2022-12-01T18:47:48.178Z,18.90
2022-12-01T18:50:14.760Z,18.27
2022-12-01T18:52:41.278Z,19.40
2022-12-01T18:55:08.188Z,20.60
2022-12-01T18:57:34.659Z,19.05
2022-12-01T19:00:01.627Z,17.23
2022-12-01T19:02:28.196Z,21.95
2022-12-01T19:04:54.709Z,18.77
2022-12-01T19:07:25.235Z,18.30
2022-12-01T19:09:56.122Z,18.52
2022-12-01T19:12:22.579Z,17.70
2022-12-01T19:14:49.312Z,21.67
2022-12-01T19:17:18.053Z,18.15
2022-12-01T19:19:44.854Z,16.13
2022-12-01T19:22:11.345Z,18.48
2022-12-01T19:24:37.808Z,21.20
2022-12-01T19:27:04.424Z,18.80
2022-12-01T19:29:30.893Z,21.63
2022-12-01T19:31:57.475Z,20.45
2022-12-01T19:34:24.233Z,18.00
2022-12-01T19:36:53.497Z,20.48
2022-12-01T19:39:20.096Z,18.67
2022-12-01T19:41:46.650Z,18.25
2022-12-01T19:44:13.112Z,18.67
2022-12-01T19:46:39.614Z,17.27
2022-12-01T19:49:06.718Z,15.75
2022-12-01T19:51:37.445Z,18.60
2022-12-01T19:54:12.856Z,19.17
2022-12-01T19:56:39.340Z,16.38
2022-12-01T19:59:07.778Z,19.15
2022-12-01T20:01:34.344Z,26.38
2022-12-01T20:04:00.885Z,23.58
2022-12-01T20:06:28.635Z,24.73
2022-12-01T20:08:56.237Z,27.70
2022-12-01T20:11:22.827Z,25.25
2022-12-01T20:13:49.362Z,27.15
2022-12-01T20:16:17.956Z,29.08
2022-12-01T20:18:44.462Z,23.95
2022-12-01T20:21:19.155Z,26.83
2022-12-01T20:23:47.268Z,26.27
2022-12-01T20:26:13.934Z,21.27
2022-12-01T20:28:40.496Z,24.17
2022-12-01T20:31:11.739Z,24.30
2022-12-01T20:33:38.644Z,23.67
2022-12-01T20:36:06.035Z,25.20
2022-12-01T20:38:32.485Z,23.77
2022-12-01T20:40:58.932Z,20.80
2022-12-01T20:43:25.408Z,22.90
2022-12-01T20:45:51.989Z,23.00
2022-12-01T20:48:18.577Z,23.65
2022-12-01T20:50:45.039Z,24.85
2022-12-01T20:53:11.562Z,21.83
2022-12-01T20:55:38.008Z,23.70
2022-12-01T20:58:04.979Z,22.33
2022-12-01T21:00:31.584Z,24.95
2022-12-01T21:02:58.036Z,21.00
2022-12-01T21:05:25.252Z,22.98
2022-12-01T21:07:52.180Z,20.80
2022-12-01T21:10:20.304Z,20.20
2022-12-01T21:13:07.835Z,21.48
2022-12-01T21:15:41.721Z,30.20
2022-12-01T21:18:15.771Z,28.30
2022-12-01T21:23:17.435Z,45.60
2022-12-01T21:25:44.225Z,39.15
2022-12-01T21:28:23.579Z,36.20
2022-12-01T21:30:51.229Z,32.67
2022-12-01T21:33:25.974Z,33.63
2022-12-01T21:35:52.672Z,34.53
2022-12-01T21:38:22.113Z,33.33
2022-12-01T21:40:48.866Z,29.75
2022-12-01T21:43:18.179Z,30.13
2022-12-01T21:45:44.704Z,31.98
2022-12-01T21:48:15.450Z,29.75
2022-12-01T21:50:42.032Z,28.35
2022-12-01T21:53:16.022Z,32.00
2022-12-01T21:58:24.650Z,32.53
2022-12-01T22:00:55.225Z,26.13
2022-12-01T22:03:33.050Z,26.10
2022-12-01T22:06:29.891Z,25.77
2022-12-01T22:09:35.176Z,27.17
2022-12-01T22:12:26.006Z,27.30
2022-12-01T22:14:53.570Z,28.25
2022-12-01T22:17:20.649Z,28.05
2022-12-01T22:19:57.967Z,28.52
2022-12-01T22:22:26.062Z,30.70
2022-12-01T22:25:00.016Z,29.10
2022-12-01T22:27:34.176Z,28.50
2022-12-01T22:32:46.833Z,26.15
2022-12-01T22:35:26.256Z,24.83
2022-12-01T22:38:10.876Z,24.85
2022-12-01T22:40:57.759Z,25.45
2022-12-01T22:43:28.988Z,22.83
2022-12-01T22:46:07.598Z,25.23
2022-12-01T22:48:39.609Z,23.13
2022-12-01T22:51:26.482Z,23.30
2022-12-01T22:54:26.193Z,24.75
2022-12-01T22:57:02.723Z,22.15
2022-12-01T22:59:36.288Z,23.95
2022-12-01T23:02:16.513Z,24.85
2022-12-01T23:04:45.905Z,25.83
2022-12-01T23:07:31.724Z,23.17
2022-12-01T23:10:22.180Z,24.55
2022-12-01T23:12:49.892Z,24.15
2022-12-01T23:15:36.693Z,21.65
2022-12-01T23:18:13.991Z,22.02
2022-12-01T23:20:40.947Z,22.95
2022-12-01T23:23:14.007Z,21.45
2022-12-01T23:25:41.577Z,23.50
2022-12-01T23:28:08.504Z,27.30
2022-12-01T23:30:35.187Z,20.77
2022-12-01T23:33:21.756Z,20.63
2022-12-01T23:36:00.298Z,22.40
2022-12-01T23:38:31.264Z,20.35
2022-12-01T23:41:00.488Z,19.83
2022-12-01T23:43:33.094Z,20.92
2022-12-01T23:46:19.158Z,20.95
2022-12-01T23:48:48.166Z,19.50
2022-12-01T23:51:20.268Z,21.67
2022-12-01T23:53:46.840Z,20.38
2022-12-01T23:56:18.403Z,20.95
2022-12-01T23:58:44.877Z,20.45
